Terminal Aerodrome Forecast
Issued by NWS Des Moines, IA

Home | Current Version | Previous Version | Text Only | Print | Product List | Glossary On
Versions: 1 2 3 4 5 6 7 8 9 10 11 12 13 14 15 16 17 18 19
000
FTUS43 KDMX 221733
TAFALO
TAF
KALO 221733Z 2218/2318 17009KT P6SM FEW050 BKN100
     FM222300 35010KT P6SM VCTS BKN060CB
      TEMPO 2223/2302 3SM TSRA OVC025CB
     FM230300 32007KT P6SM VCSH OVC050
     FM230500 33006KT P6SM SCT080
     FM231500 31009KT P6SM SCT150=

USA.gov is the U.S. government's official web portal to all federal, state and local government web resources and services.